Terminal Aerodrome Forecast
Issued by NWS

Home | Current Version | Previous Version | Text Only | Print | Product List | Glossary On
Versions: 1 2 3 4 5 6 7 8 9 10 11 12 13 14
415
FTUS42 TJSJ 231721
TAFJBQ
TAF
TJBQ 231721Z 2318/2418 09019KT P6SM SCT026 SCT035 BKN060
     FM232300 09010KT P6SM FEW030
     FM241300 08012KT P6SM FEW025=

USA.gov is the U.S. government's official web portal to all federal, state and local government web resources and services.